sensor_id;sensor_type;location;lat;lon;timestamp;temperature;humidity
67165;SHT31;54093;50.014;19.984;2023-03-01T00:06:54;-2.24;75.06
67165;SHT31;54093;50.014;19.984;2023-03-01T00:16:18;-2.38;74.80
67165;SHT31;54093;50.014;19.984;2023-03-01T00:25:42;-2.40;74.62
67165;SHT31;54093;50.014;19.984;2023-03-01T00:35:04;-2.42;75.45
67165;SHT31;54093;50.014;19.984;2023-03-01T00:44:26;-2.41;75.21
67165;SHT31;54093;50.014;19.984;2023-03-01T00:53:50;-2.61;75.17
67165;SHT31;54093;50.014;19.984;2023-03-01T01:03:11;-2.62;75.75
67165;SHT31;54093;50.014;19.984;2023-03-01T01:12:32;-2.73;76.39
67165;SHT31;54093;50.014;19.984;2023-03-01T01:21:53;-2.72;76.69
67165;SHT31;54093;50.014;19.984;2023-03-01T01:31:14;-2.70;75.89
67165;SHT31;54093;50.014;19.984;2023-03-01T01:40:43;-2.68;76.47
67165;SHT31;54093;50.014;19.984;2023-03-01T01:50:04;-2.82;75.45
67165;SHT31;54093;50.014;19.984;2023-03-01T01:59:28;-2.92;76.51
67165;SHT31;54093;50.014;19.984;2023-03-01T02:08:52;-2.93;76.55
67165;SHT31;54093;50.014;19.984;2023-03-01T02:18:17;-2.86;76.50
67165;SHT31;54093;50.014;19.984;2023-03-01T02:37:21;-2.96;75.72
67165;SHT31;54093;50.014;19.984;2023-03-01T02:46:54;-3.11;75.47
67165;SHT31;54093;50.014;19.984;2023-03-01T02:56:16;-3.15;76.04
67165;SHT31;54093;50.014;19.984;2023-03-01T03:05:37;-3.21;75.50
67165;SHT31;54093;50.014;19.984;2023-03-01T03:14:58;-3.27;75.87
67165;SHT31;54093;50.014;19.984;2023-03-01T03:24:19;-3.38;76.64
67165;SHT31;54093;50.014;19.984;2023-03-01T03:33:40;-3.35;76.88
67165;SHT31;54093;50.014;19.984;2023-03-01T03:43:03;-3.34;76.20
67165;SHT31;54093;50.014;19.984;2023-03-01T03:52:24;-3.41;76.08
67165;SHT31;54093;50.014;19.984;2023-03-01T04:01:45;-3.48;75.75
67165;SHT31;54093;50.014;19.984;2023-03-01T04:11:06;-3.52;75.47
67165;SHT31;54093;50.014;19.984;2023-03-01T04:20:46;-3.61;76.45
67165;SHT31;54093;50.014;19.984;2023-03-01T04:30:08;-3.69;76.47
67165;SHT31;54093;50.014;19.984;2023-03-01T04:39:29;-3.72;76.05
67165;SHT31;54093;50.014;19.984;2023-03-01T04:48:50;-3.78;76.27
67165;SHT31;54093;50.014;19.984;2023-03-01T04:58:11;-3.86;76.76
67165;SHT31;54093;50.014;19.984;2023-03-01T05:07:32;-3.81;75.96
67165;SHT31;54093;50.014;19.984;2023-03-01T05:16:53;-3.83;76.41
67165;SHT31;54093;50.014;19.984;2023-03-01T05:26:16;-3.82;77.14
67165;SHT31;54093;50.014;19.984;2023-03-01T05:35:38;-3.85;76.66
67165;SHT31;54093;50.014;19.984;2023-03-01T05:45:00;-3.79;76.48
67165;SHT31;54093;50.014;19.984;2023-03-01T05:54:21;-3.83;76.27
67165;SHT31;54093;50.014;19.984;2023-03-01T06:03:42;-3.90;76.84
67165;SHT31;54093;50.014;19.984;2023-03-01T06:13:03;-3.82;77.81
67165;SHT31;54093;50.014;19.984;2023-03-01T06:22:24;-3.50;77.74
67165;SHT31;54093;50.014;19.984;2023-03-01T06:31:45;-2.55;81.65
67165;SHT31;54093;50.014;19.984;2023-03-01T06:41:06;-2.00;77.88
67165;SHT31;54093;50.014;19.984;2023-03-01T06:50:27;-0.59;83.59
67165;SHT31;54093;50.014;19.984;2023-03-01T06:59:48;0.61;80.57
67165;SHT31;54093;50.014;19.984;2023-03-01T07:09:09;1.30;77.90
67165;SHT31;54093;50.014;19.984;2023-03-01T07:18:30;1.60;65.17
67165;SHT31;54093;50.014;19.984;2023-03-01T07:27:53;0.68;68.25
67165;SHT31;54093;50.014;19.984;2023-03-01T07:37:14;0.58;71.59
67165;SHT31;54093;50.014;19.984;2023-03-01T07:46:34;0.62;77.62
67165;SHT31;54093;50.014;19.984;2023-03-01T07:56:10;1.84;78.52
67165;SHT31;54093;50.014;19.984;2023-03-01T08:05:32;3.23;71.29
67165;SHT31;54093;50.014;19.984;2023-03-01T08:14:52;3.70;71.02
67165;SHT31;54093;50.014;19.984;2023-03-01T08:24:13;4.80;56.68
67165;SHT31;54093;50.014;19.984;2023-03-01T08:33:34;4.83;66.17
67165;SHT31;54093;50.014;19.984;2023-03-01T08:42:55;6.13;64.30
67165;SHT31;54093;50.014;19.984;2023-03-01T08:52:16;6.64;62.19
67165;SHT31;54093;50.014;19.984;2023-03-01T09:01:38;7.67;55.36
67165;SHT31;54093;50.014;19.984;2023-03-01T09:11:01;8.13;53.23
67165;SHT31;54093;50.014;19.984;2023-03-01T09:20:22;8.49;51.87
67165;SHT31;54093;50.014;19.984;2023-03-01T09:29:44;8.22;50.74
67165;SHT31;54093;50.014;19.984;2023-03-01T09:39:05;7.79;50.98
67165;SHT31;54093;50.014;19.984;2023-03-01T09:48:33;8.53;46.40
67165;SHT31;54093;50.014;19.984;2023-03-01T09:58:27;7.64;50.50
67165;SHT31;54093;50.014;19.984;2023-03-01T10:26:57;8.40;43.49
67165;SHT31;54093;50.014;19.984;2023-03-01T10:36:19;8.70;46.05
67165;SHT31;54093;50.014;19.984;2023-03-01T10:45:40;8.99;43.97
67165;SHT31;54093;50.014;19.984;2023-03-01T11:05:08;8.67;44.68
67165;SHT31;54093;50.014;19.984;2023-03-01T11:14:38;8.87;45.55
67165;SHT31;54093;50.014;19.984;2023-03-01T11:24:11;8.74;45.47
67165;SHT31;54093;50.014;19.984;2023-03-01T11:33:55;8.88;46.46
67165;SHT31;54093;50.014;19.984;2023-03-01T11:43:37;8.75;44.72
67165;SHT31;54093;50.014;19.984;2023-03-01T12:13:14;8.78;42.80
67165;SHT31;54093;50.014;19.984;2023-03-01T12:33:02;8.95;45.01
67165;SHT31;54093;50.014;19.984;2023-03-01T12:42:39;8.98;45.15
67165;SHT31;54093;50.014;19.984;2023-03-01T13:11:19;9.49;43.72
67165;SHT31;54093;50.014;19.984;2023-03-01T13:30:02;9.76;40.55
67165;SHT31;54093;50.014;19.984;2023-03-01T13:39:30;10.48;41.44
67165;SHT31;54093;50.014;19.984;2023-03-01T13:48:56;10.55;40.10
67165;SHT31;54093;50.014;19.984;2023-03-01T13:58:32;10.62;39.11
67165;SHT31;54093;50.014;19.984;2023-03-01T14:07:53;10.53;38.77
67165;SHT31;54093;50.014;19.984;2023-03-01T14:26:49;10.57;40.67
67165;SHT31;54093;50.014;19.984;2023-03-01T14:36:13;10.46;39.59
67165;SHT31;54093;50.014;19.984;2023-03-01T14:45:35;10.14;41.45
67165;SHT31;54093;50.014;19.984;2023-03-01T14:54:56;9.51;39.18
67165;SHT31;54093;50.014;19.984;2023-03-01T15:04:18;8.99;41.50
67165;SHT31;54093;50.014;19.984;2023-03-01T15:13:40;8.16;43.28
67165;SHT31;54093;50.014;19.984;2023-03-01T15:23:03;7.71;43.17
67165;SHT31;54093;50.014;19.984;2023-03-01T15:32:31;7.22;45.60
67165;SHT31;54093;50.014;19.984;2023-03-01T15:41:52;6.95;44.79
67165;SHT31;54093;50.014;19.984;2023-03-01T15:51:13;6.64;46.44
67165;SHT31;54093;50.014;19.984;2023-03-01T16:00:35;6.30;49.35
67165;SHT31;54093;50.014;19.984;2023-03-01T16:09:57;6.06;50.38
67165;SHT31;54093;50.014;19.984;2023-03-01T16:19:18;5.76;50.65
67165;SHT31;54093;50.014;19.984;2023-03-01T16:28:42;5.39;52.07
67165;SHT31;54093;50.014;19.984;2023-03-01T16:38:04;4.98;52.29
67165;SHT31;54093;50.014;19.984;2023-03-01T16:47:25;4.53;52.70
67165;SHT31;54093;50.014;19.984;2023-03-01T16:56:46;4.21;55.36
67165;SHT31;54093;50.014;19.984;2023-03-01T17:06:11;3.87;56.40
67165;SHT31;54093;50.014;19.984;2023-03-01T17:15:32;3.52;56.57
67165;SHT31;54093;50.014;19.984;2023-03-01T17:24:53;3.23;57.40
67165;SHT31;54093;50.014;19.984;2023-03-01T17:34:14;3.00;58.80
67165;SHT31;54093;50.014;19.984;2023-03-01T17:43:36;2.87;58.71
67165;SHT31;54093;50.014;19.984;2023-03-01T17:52:57;2.54;59.81
67165;SHT31;54093;50.014;19.984;2023-03-01T18:02:18;2.36;60.51
67165;SHT31;54093;50.014;19.984;2023-03-01T18:11:40;2.01;60.94
67165;SHT31;54093;50.014;19.984;2023-03-01T18:21:02;1.98;61.51
67165;SHT31;54093;50.014;19.984;2023-03-01T18:30:25;1.70;62.29
67165;SHT31;54093;50.014;19.984;2023-03-01T18:39:50;1.48;63.72
67165;SHT31;54093;50.014;19.984;2023-03-01T18:49:13;1.32;63.91
67165;SHT31;54093;50.014;19.984;2023-03-01T18:58:35;1.15;64.37
67165;SHT31;54093;50.014;19.984;2023-03-01T19:07:56;1.10;65.22
67165;SHT31;54093;50.014;19.984;2023-03-01T19:17:21;0.89;64.86
67165;SHT31;54093;50.014;19.984;2023-03-01T19:26:42;0.79;65.92
67165;SHT31;54093;50.014;19.984;2023-03-01T19:36:03;0.75;66.75
67165;SHT31;54093;50.014;19.984;2023-03-01T19:45:24;0.62;66.38
67165;SHT31;54093;50.014;19.984;2023-03-01T19:54:47;0.51;66.90
67165;SHT31;54093;50.014;19.984;2023-03-01T20:04:08;0.48;67.01
67165;SHT31;54093;50.014;19.984;2023-03-01T20:13:30;0.29;67.14
67165;SHT31;54093;50.014;19.984;2023-03-01T20:22:51;0.23;67.73
67165;SHT31;54093;50.014;19.984;2023-03-01T20:32:12;0.06;68.01
67165;SHT31;54093;50.014;19.984;2023-03-01T20:41:33;-0.04;68.30
67165;SHT31;54093;50.014;19.984;2023-03-01T20:50:54;-0.23;68.72
67165;SHT31;54093;50.014;19.984;2023-03-01T21:00:16;-0.23;68.55
67165;SHT31;54093;50.014;19.984;2023-03-01T21:09:37;-0.46;69.07
67165;SHT31;54093;50.014;19.984;2023-03-01T21:18:59;-0.50;69.61
67165;SHT31;54093;50.014;19.984;2023-03-01T21:28:27;-0.59;70.20
67165;SHT31;54093;50.014;19.984;2023-03-01T21:37:52;-0.60;70.24
67165;SHT31;54093;50.014;19.984;2023-03-01T21:47:13;-0.69;70.03
67165;SHT31;54093;50.014;19.984;2023-03-01T21:56:34;-0.83;70.76
67165;SHT31;54093;50.014;19.984;2023-03-01T22:06:00;-0.88;70.71
67165;SHT31;54093;50.014;19.984;2023-03-01T22:15:23;-0.91;71.08
67165;SHT31;54093;50.014;19.984;2023-03-01T22:24:44;-1.00;72.07
67165;SHT31;54093;50.014;19.984;2023-03-01T22:34:06;-1.01;71.81
67165;SHT31;54093;50.014;19.984;2023-03-01T22:43:28;-1.04;71.33
67165;SHT31;54093;50.014;19.984;2023-03-01T22:52:49;-1.25;71.94
67165;SHT31;54093;50.014;19.984;2023-03-01T23:02:11;-1.27;72.16
67165;SHT31;54093;50.014;19.984;2023-03-01T23:11:32;-1.41;72.41
67165;SHT31;54093;50.014;19.984;2023-03-01T23:20:53;-1.39;72.33
67165;SHT31;54093;50.014;19.984;2023-03-01T23:30:14;-1.52;72.18
67165;SHT31;54093;50.014;19.984;2023-03-01T23:39:36;-1.62;72.44
67165;SHT31;54093;50.014;19.984;2023-03-01T23:48:58;-1.65;72.85
67165;SHT31;54093;50.014;19.984;2023-03-01T23:58:19;-1.63;73.27
